createdAt,value
2022-10-17T00:00:12.096Z,96805.97
2022-10-17T00:02:39.747Z,96803.09
2022-10-17T00:05:07.703Z,96810.91
2022-10-17T00:07:35.456Z,96812.50
2022-10-17T00:10:03.144Z,96809.47
2022-10-17T00:12:31.255Z,96808.66
2022-10-17T00:15:00.335Z,96814.88
2022-10-17T00:17:28.377Z,96816.50
2022-10-17T00:19:56.321Z,96819.09
2022-10-17T00:22:24.054Z,96817.47
2022-10-17T00:24:51.999Z,96817.47
2022-10-17T00:27:19.703Z,96819.09
2022-10-17T00:29:49.427Z,96819.09
2022-10-17T00:32:18.684Z,96821.00
2022-10-17T00:34:46.843Z,96825.44
2022-10-17T00:37:14.555Z,96822.72
2022-10-17T00:39:42.233Z,96830.88
2022-10-17T00:42:13.141Z,96829.72
2022-10-17T00:45:03.743Z,96833.72
2022-10-17T00:47:34.508Z,96827.31
2022-10-17T00:52:35.643Z,96837.38
2022-10-17T00:55:09.508Z,96841.03
2022-10-17T00:57:37.475Z,96837.00
2022-10-17T01:00:10.267Z,96841.66
2022-10-17T01:02:39.528Z,96841.47
2022-10-17T01:05:08.907Z,96845.28
2022-10-17T01:07:38.074Z,96850.09
2022-10-17T01:10:08.395Z,96846.88
2022-10-17T01:12:46.535Z,96849.13
2022-10-17T01:15:26.136Z,96847.81
2022-10-17T01:18:06.963Z,96851.59
2022-10-17T01:21:01.254Z,96847.22
2022-10-17T01:23:41.299Z,96844.97
2022-10-17T01:26:20.121Z,96841.56
2022-10-17T01:29:08.435Z,96849.03
2022-10-17T01:31:44.128Z,96836.09
2022-10-17T01:34:18.006Z,96835.28
2022-10-17T01:36:52.100Z,96834.19
2022-10-17T01:39:30.119Z,96848.22
2022-10-17T01:42:03.080Z,96840.41
2022-10-17T01:44:38.139Z,96831.28
2022-10-17T01:47:11.108Z,96825.06
2022-10-17T01:49:41.940Z,96824.75
2022-10-17T01:52:12.660Z,96815.34
2022-10-17T01:54:43.689Z,96819.47
2022-10-17T01:57:17.462Z,96817.06
2022-10-17T01:59:49.653Z,96819.78
2022-10-17T02:02:20.823Z,96813.00
2022-10-17T02:04:51.889Z,96818.34
2022-10-17T02:07:19.750Z,96808.44
2022-10-17T02:09:47.684Z,96817.81
2022-10-17T02:12:38.672Z,96804.69
2022-10-17T02:15:29.863Z,96800.31
2022-10-17T02:18:15.084Z,96798.09
2022-10-17T02:20:52.661Z,96798.53
2022-10-17T02:23:26.925Z,96804.13
2022-10-17T02:26:01.097Z,96797.44
2022-10-17T02:28:34.691Z,96810.66
2022-10-17T02:31:07.888Z,96798.03
2022-10-17T02:33:42.811Z,96798.16
2022-10-17T02:36:14.294Z,96808.56
2022-10-17T02:38:44.841Z,96809.16
2022-10-17T02:41:17.614Z,96813.16
2022-10-17T02:43:48.327Z,96814.78
2022-10-17T02:46:21.118Z,96821.09
2022-10-17T02:48:54.234Z,96819.31
2022-10-17T02:51:29.329Z,96821.50
2022-10-17T02:54:10.625Z,96821.03
2022-10-17T02:56:44.035Z,96819.81
2022-10-17T02:59:15.192Z,96824.44
2022-10-17T03:01:44.875Z,96828.84
2022-10-17T03:04:15.898Z,96836.34
2022-10-17T03:06:44.002Z,96834.13
2022-10-17T03:09:11.687Z,96829.72
2022-10-17T03:11:39.616Z,96827.81
2022-10-17T03:14:08.743Z,96823.72
2022-10-17T03:16:36.474Z,96828.81
2022-10-17T03:19:05.211Z,96830.72
2022-10-17T03:21:36.391Z,96838.97
2022-10-17T03:24:04.171Z,96846.28
2022-10-17T03:26:31.993Z,96854.78
2022-10-17T03:28:59.931Z,96852.59
2022-10-17T03:31:29.742Z,96855.00
2022-10-17T03:33:58.058Z,96855.00
2022-10-17T03:36:25.776Z,96861.81
2022-10-17T03:38:56.581Z,96860.19
2022-10-17T03:41:24.468Z,96863.72
2022-10-17T03:43:53.993Z,96863.00
2022-10-17T03:46:22.344Z,96858.59
2022-10-17T03:48:50.203Z,96864.19
2022-10-17T03:51:17.956Z,96866.00
2022-10-17T03:53:50.798Z,96858.09
2022-10-17T03:56:22.036Z,96864.69
2022-10-17T03:59:03.132Z,96847.56
2022-10-17T04:01:33.938Z,96863.97
2022-10-17T04:04:01.766Z,96857.97
2022-10-17T04:06:33.121Z,96861.16
2022-10-17T04:09:02.241Z,96859.19
2022-10-17T04:11:47.400Z,96872.00
2022-10-17T04:14:15.095Z,96871.88
2022-10-17T04:16:43.439Z,96868.44
2022-10-17T04:19:18.430Z,96869.53
2022-10-17T04:21:47.955Z,96880.09
2022-10-17T04:24:16.403Z,96877.91
2022-10-17T04:26:51.952Z,96881.72
2022-10-17T04:29:21.130Z,96887.66
2022-10-17T04:31:52.247Z,96884.69
2022-10-17T04:34:25.194Z,96890.63
2022-10-17T04:36:52.890Z,96889.78
2022-10-17T04:39:20.774Z,96896.56
2022-10-17T04:41:48.528Z,96891.53
2022-10-17T04:44:18.048Z,96893.91
2022-10-17T04:46:51.599Z,96885.50
2022-10-17T04:49:20.559Z,96895.50
2022-10-17T04:51:52.540Z,96891.94
2022-10-17T04:54:26.585Z,96901.16
2022-10-17T04:57:04.602Z,96901.97
2022-10-17T04:59:33.759Z,96892.97
2022-10-17T05:02:19.659Z,96894.38
2022-10-17T05:04:47.980Z,96907.38
2022-10-17T05:07:16.661Z,96906.56
2022-10-17T05:09:44.323Z,96903.63
2022-10-17T05:12:13.047Z,96898.81
2022-10-17T05:14:45.775Z,96900.41
2022-10-17T05:17:14.600Z,96894.44
2022-10-17T05:19:42.317Z,96902.81
2022-10-17T05:22:10.448Z,96899.31
2022-10-17T05:24:38.214Z,96904.22
2022-10-17T05:27:06.069Z,96910.16
2022-10-17T05:29:33.780Z,96904.38
2022-10-17T05:32:10.565Z,96902.56
2022-10-17T05:34:38.490Z,96906.53
2022-10-17T05:37:08.764Z,96901.91
2022-10-17T05:39:36.979Z,96901.41
2022-10-17T05:42:05.547Z,96911.94
2022-10-17T05:44:34.455Z,96907.63
2022-10-17T05:47:02.424Z,96918.94
2022-10-17T05:49:44.020Z,96908.72
2022-10-17T05:52:17.138Z,96922.72
2022-10-17T05:54:58.608Z,96915.44
2022-10-17T05:57:26.696Z,96927.56
2022-10-17T05:59:54.709Z,96924.56
2022-10-17T06:02:22.697Z,96930.25
2022-10-17T06:04:52.255Z,96932.66
2022-10-17T06:07:22.036Z,96932.97
2022-10-17T06:09:50.407Z,96931.34
2022-10-17T06:12:18.123Z,96937.25
2022-10-17T06:14:46.524Z,96944.78
2022-10-17T06:17:16.371Z,96934.97
2022-10-17T06:19:45.472Z,96942.09
2022-10-17T06:22:20.206Z,96943.38
2022-10-17T06:24:48.120Z,96944.91
2022-10-17T06:27:16.322Z,96949.66
2022-10-17T06:29:44.019Z,96949.31
2022-10-17T06:32:14.946Z,96950.53
2022-10-17T06:34:45.447Z,96952.09
2022-10-17T06:37:13.236Z,96957.09
2022-10-17T06:39:43.683Z,96965.69
2022-10-17T06:42:17.667Z,96968.00
2022-10-17T06:45:05.004Z,96975.72
2022-10-17T06:48:03.280Z,96979.38
2022-10-17T06:50:43.763Z,96986.31
2022-10-17T06:53:24.978Z,96993.25
2022-10-17T06:56:28.034Z,96984.44
2022-10-17T06:59:10.251Z,96993.50
2022-10-17T07:01:41.878Z,97002.53
2022-10-17T07:04:12.910Z,96994.81
2022-10-17T07:06:40.771Z,96993.66
2022-10-17T07:09:20.165Z,96996.44
2022-10-17T07:11:49.758Z,97005.00
2022-10-17T07:14:20.191Z,96998.09
2022-10-17T07:16:49.872Z,97004.41
2022-10-17T07:19:23.664Z,97009.41
2022-10-17T07:21:51.834Z,97006.59
2022-10-17T07:24:19.572Z,97009.72
2022-10-17T07:26:53.724Z,97014.22
2022-10-17T07:29:21.794Z,97014.13
2022-10-17T07:32:03.884Z,97012.50
2022-10-17T07:34:31.589Z,97023.25
2022-10-17T07:36:59.959Z,97026.03
2022-10-17T07:39:27.854Z,97024.53
2022-10-17T07:41:58.751Z,97023.81
2022-10-17T07:44:26.597Z,97024.69
2022-10-17T07:46:55.277Z,97025.88
2022-10-17T07:49:23.030Z,97024.91
2022-10-17T07:51:50.874Z,97031.81
2022-10-17T07:54:18.601Z,97019.91
2022-10-17T07:56:50.338Z,97025.88
2022-10-17T07:59:20.315Z,97023.44
2022-10-17T08:01:48.007Z,97030.19
2022-10-17T08:04:16.796Z,97031.84
2022-10-17T08:06:44.515Z,97025.03
2022-10-17T08:09:12.175Z,97027.19
2022-10-17T08:11:39.887Z,97033.31
2022-10-17T08:14:08.038Z,97019.94
2022-10-17T08:16:37.635Z,97018.22
2022-10-17T08:19:05.457Z,97024.66
2022-10-17T08:21:33.242Z,97026.13
2022-10-17T08:24:02.691Z,97027.09
2022-10-17T08:26:30.737Z,97028.56
2022-10-17T08:28:58.499Z,97035.81
2022-10-17T08:31:27.207Z,97034.50
2022-10-17T08:33:56.293Z,97038.66
2022-10-17T08:36:24.075Z,97039.78
2022-10-17T08:38:52.984Z,97041.03
2022-10-17T08:41:42.352Z,97050.31
2022-10-17T08:44:18.781Z,97044.00
2022-10-17T08:46:49.145Z,97043.94
2022-10-17T08:49:27.200Z,97045.84
2022-10-17T08:52:00.702Z,97049.16
2022-10-17T08:54:39.367Z,97045.84
2022-10-17T08:57:12.834Z,97047.22
2022-10-17T08:59:40.817Z,97057.38
2022-10-17T09:02:23.997Z,97051.78
2022-10-17T09:05:09.760Z,97051.19
2022-10-17T09:07:46.827Z,97051.06
2022-10-17T09:10:20.002Z,97057.81
2022-10-17T09:12:57.618Z,97055.16
2022-10-17T09:15:38.892Z,97067.38
2022-10-17T09:18:13.559Z,97065.59
2022-10-17T09:20:48.383Z,97071.91
2022-10-17T09:23:20.852Z,97064.66
2022-10-17T09:25:51.543Z,97070.16
2022-10-17T09:28:24.537Z,97062.84
2022-10-17T09:30:58.035Z,97061.34
2022-10-17T09:33:42.212Z,97061.78
2022-10-17T09:36:21.853Z,97058.59
2022-10-17T09:38:51.929Z,97059.72
2022-10-17T09:44:16.931Z,97074.41
2022-10-17T09:46:56.173Z,97069.09
2022-10-17T09:49:28.721Z,97063.47
2022-10-17T09:51:57.999Z,97056.22
2022-10-17T09:54:29.966Z,97069.25
2022-10-17T09:56:59.915Z,97068.84
2022-10-17T09:59:37.267Z,97075.78
2022-10-17T10:02:17.762Z,97074.91
2022-10-17T10:05:04.674Z,97067.41
2022-10-17T10:07:36.865Z,97075.00
2022-10-17T10:10:07.368Z,97076.44
2022-10-17T10:12:37.650Z,97076.19
2022-10-17T10:15:33.817Z,97085.38
2022-10-17T10:18:02.099Z,97074.00
2022-10-17T10:20:34.571Z,97078.69
2022-10-17T10:23:17.142Z,97066.31
2022-10-17T10:25:55.018Z,97071.06
2022-10-17T10:28:26.133Z,97068.25
2022-10-17T10:30:56.490Z,97064.75
2022-10-17T10:33:28.509Z,97067.13
2022-10-17T10:35:59.335Z,97064.16
2022-10-17T10:38:29.652Z,97063.88
2022-10-17T10:41:02.873Z,97060.66
2022-10-17T10:43:35.867Z,97055.16
2022-10-17T10:46:07.118Z,97051.63
2022-10-17T10:48:37.124Z,97061.03
2022-10-17T10:51:09.007Z,97058.84
2022-10-17T10:53:47.870Z,97055.94
2022-10-17T10:56:19.332Z,97061.53
2022-10-17T10:59:00.546Z,97059.19
2022-10-17T11:01:34.035Z,97062.31
2022-10-17T11:04:17.293Z,97059.97
2022-10-17T11:06:46.867Z,97060.66
2022-10-17T11:09:33.774Z,97066.22
2022-10-17T11:12:10.744Z,97059.97
2022-10-17T11:14:46.047Z,97056.78
2022-10-17T11:17:24.127Z,97054.47
2022-10-17T11:20:12.178Z,97046.59
2022-10-17T11:22:43.516Z,97051.31
2022-10-17T11:25:24.092Z,97045.06
2022-10-17T11:27:51.832Z,97039.59
2022-10-17T11:30:19.694Z,97046.78
2022-10-17T11:32:50.867Z,97049.16
2022-10-17T11:35:22.317Z,97049.22
2022-10-17T11:37:56.750Z,97039.31
2022-10-17T11:40:30.958Z,97050.38
2022-10-17T11:43:02.531Z,97055.47
2022-10-17T11:45:37.728Z,97055.81
2022-10-17T11:48:13.464Z,97047.56
2022-10-17T11:53:45.778Z,97043.19
2022-10-17T11:56:20.097Z,97041.19
2022-10-17T11:58:53.689Z,97045.53
2022-10-17T12:01:33.736Z,97052.69
2022-10-17T12:04:27.742Z,97047.53
2022-10-17T12:07:09.147Z,97044.00
2022-10-17T12:09:47.174Z,97041.28
2022-10-17T12:12:28.040Z,97040.13
2022-10-17T12:15:16.303Z,97034.19
2022-10-17T12:17:45.470Z,97039.66
2022-10-17T12:20:28.625Z,97046.41
2022-10-17T12:22:58.095Z,97039.66
2022-10-17T12:25:29.873Z,97050.34
2022-10-17T12:28:13.463Z,97047.56
2022-10-17T12:30:53.059Z,97044.03
2022-10-17T12:33:23.123Z,97040.09
2022-10-17T12:35:52.409Z,97031.78
2022-10-17T12:38:23.082Z,97034.19
2022-10-17T12:40:53.415Z,97028.19
2022-10-17T12:43:55.512Z,97035.69
2022-10-17T12:46:48.259Z,97033.28
2022-10-17T12:49:38.601Z,97024.97
2022-10-17T12:52:29.462Z,97025.72
2022-10-17T12:55:16.565Z,97033.63
2022-10-17T12:57:51.319Z,97021.28
2022-10-17T13:00:24.898Z,97027.13
2022-10-17T13:02:56.472Z,97035.41
2022-10-17T13:05:29.479Z,97032.94
2022-10-17T13:08:00.069Z,97035.56
2022-10-17T13:10:29.917Z,97028.75
2022-10-17T13:13:06.600Z,97028.56
2022-10-17T13:15:37.751Z,97030.47
2022-10-17T13:18:06.357Z,97022.06
2022-10-17T13:20:34.051Z,97025.22
2022-10-17T13:23:01.924Z,97028.31
2022-10-17T13:25:29.883Z,97020.69
2022-10-17T13:28:14.475Z,97026.19
2022-10-17T13:30:49.780Z,97030.09
2022-10-17T13:33:29.876Z,97020.28
2022-10-17T13:36:01.310Z,97024.22
2022-10-17T13:38:34.165Z,97034.44
2022-10-17T13:41:30.449Z,97031.19
2022-10-17T13:43:52.825Z,97029.53
2022-10-17T13:46:37.380Z,97029.78
2022-10-17T13:49:13.740Z,97025.03
2022-10-17T13:51:45.549Z,97024.59
2022-10-17T13:54:37.142Z,97026.84
2022-10-17T13:57:06.675Z,97031.59
2022-10-17T13:59:41.299Z,97031.19
2022-10-17T14:02:17.152Z,97032.75
2022-10-17T14:05:15.161Z,97031.28
2022-10-17T14:08:05.540Z,97025.81
2022-10-17T14:10:31.795Z,97033.38
2022-10-17T14:13:01.520Z,97028.34
2022-10-17T14:15:31.136Z,97032.78
2022-10-17T14:18:06.708Z,97036.75
2022-10-17T14:23:32.630Z,97038.41
2022-10-17T14:26:13.217Z,97038.44
2022-10-17T14:28:42.807Z,97025.84
2022-10-17T14:31:19.278Z,97027.13
2022-10-17T14:33:51.092Z,97025.84
2022-10-17T14:36:19.619Z,97030.59
2022-10-17T14:38:49.448Z,97029.72
2022-10-17T14:41:42.017Z,97032.81
2022-10-17T14:44:20.471Z,97029.19
2022-10-17T14:46:52.047Z,97038.56
2022-10-17T14:49:26.952Z,97033.81
2022-10-17T14:52:38.830Z,97030.16
2022-10-17T14:55:24.646Z,97038.41
2022-10-17T14:57:52.613Z,97034.00
2022-10-17T15:00:21.667Z,97043.41
2022-10-17T15:02:50.865Z,97038.56
2022-10-17T15:05:20.466Z,97037.97
2022-10-17T15:07:48.202Z,97042.91
2022-10-17T15:10:33.815Z,97035.19
2022-10-17T15:13:26.800Z,97036.56
2022-10-17T15:15:51.818Z,97040.66
2022-10-17T15:18:19.673Z,97042.72
2022-10-17T15:20:55.282Z,97044.84
2022-10-17T15:23:32.513Z,97041.84
2022-10-17T15:26:00.204Z,97047.53
2022-10-17T15:28:27.982Z,97051.31
2022-10-17T15:30:55.807Z,97044.84
2022-10-17T15:33:23.485Z,97046.59
2022-10-17T15:35:52.876Z,97054.19
2022-10-17T15:38:20.870Z,97064.53
2022-10-17T15:40:50.878Z,97061.06
2022-10-17T15:43:20.071Z,97062.38
2022-10-17T15:45:48.007Z,97071.88
2022-10-17T15:48:24.230Z,97073.84
2022-10-17T15:50:53.311Z,97078.22
2022-10-17T15:53:21.329Z,97079.84
2022-10-17T15:55:50.867Z,97072.41
2022-10-17T15:58:19.952Z,97068.88
2022-10-17T16:00:48.623Z,97074.00
2022-10-17T16:03:16.416Z,97078.44
2022-10-17T16:05:44.183Z,97071.91
2022-10-17T16:08:13.246Z,97080.31
2022-10-17T16:10:41.499Z,97080.81
2022-10-17T16:13:18.251Z,97079.28
2022-10-17T16:15:46.035Z,97088.00
2022-10-17T16:18:13.800Z,97089.31
2022-10-17T16:20:41.740Z,97095.28
2022-10-17T16:23:09.669Z,97089.50
2022-10-17T16:25:39.984Z,97094.63
2022-10-17T16:28:08.434Z,97093.38
2022-10-17T16:30:44.239Z,97091.13
2022-10-17T16:33:12.672Z,97104.81
2022-10-17T16:35:40.711Z,97102.66
2022-10-17T16:38:08.907Z,97097.66
2022-10-17T16:40:39.916Z,97101.66
2022-10-17T16:43:07.899Z,97103.56
2022-10-17T16:45:35.610Z,97095.09
2022-10-17T16:48:03.291Z,97104.34
2022-10-17T16:50:35.290Z,97107.28
2022-10-17T16:53:03.810Z,97109.78
2022-10-17T16:55:31.492Z,97110.88
2022-10-17T16:58:01.437Z,97112.56
2022-10-17T17:00:29.223Z,97113.13
2022-10-17T17:02:56.971Z,97108.66
2022-10-17T17:05:24.703Z,97103.72
2022-10-17T17:07:52.412Z,97112.03
2022-10-17T17:10:20.114Z,97109.81
2022-10-17T17:12:47.932Z,97113.09
2022-10-17T17:15:17.010Z,97118.63
2022-10-17T17:17:51.303Z,97117.56
2022-10-17T17:20:20.100Z,97119.41
2022-10-17T17:22:48.459Z,97123.00
2022-10-17T17:25:16.154Z,97118.06
2022-10-17T17:27:43.840Z,97124.19
2022-10-17T17:30:12.414Z,97131.09
2022-10-17T17:32:41.476Z,97132.63
2022-10-17T17:35:10.064Z,97128.97
2022-10-17T17:37:37.827Z,97136.66
2022-10-17T17:40:06.879Z,97129.94
2022-10-17T17:42:34.682Z,97127.06
2022-10-17T17:45:02.374Z,97140.25
2022-10-17T17:47:30.497Z,97131.28
2022-10-17T17:49:59.672Z,97134.81
2022-10-17T17:52:27.515Z,97130.44
2022-10-17T17:54:55.398Z,97131.31
2022-10-17T17:57:23.116Z,97129.84
2022-10-17T17:59:52.124Z,97128.41
2022-10-17T18:02:19.796Z,97122.00
2022-10-17T18:04:47.532Z,97127.44
2022-10-17T18:07:16.619Z,97130.69
2022-10-17T18:09:44.332Z,97133.47
2022-10-17T18:12:12.025Z,97132.72
2022-10-17T18:14:39.690Z,97127.78
2022-10-17T18:17:07.391Z,97140.31
2022-10-17T18:19:35.222Z,97133.44
2022-10-17T18:22:02.924Z,97141.94
2022-10-17T18:24:32.046Z,97131.72
2022-10-17T18:27:00.015Z,97132.97
2022-10-17T18:29:29.346Z,97131.88
2022-10-17T18:31:57.072Z,97138.31
2022-10-17T18:34:24.875Z,97139.28
2022-10-17T18:36:53.728Z,97142.97
2022-10-17T18:39:22.045Z,97142.16
2022-10-17T18:41:51.128Z,97145.53
2022-10-17T18:44:18.848Z,97154.03
2022-10-17T18:46:46.987Z,97150.97
2022-10-17T18:49:20.513Z,97156.75
2022-10-17T18:51:48.327Z,97161.25
2022-10-17T18:54:20.271Z,97155.63
2022-10-17T18:56:48.084Z,97161.09
2022-10-17T18:59:17.265Z,97159.00
2022-10-17T19:01:45.231Z,97153.88
2022-10-17T19:04:13.932Z,97153.06
2022-10-17T19:06:42.266Z,97152.75
2022-10-17T19:09:12.429Z,97163.81
2022-10-17T19:11:40.300Z,97156.44
2022-10-17T19:14:12.781Z,97156.91
2022-10-17T19:16:44.031Z,97159.78
2022-10-17T19:19:14.340Z,97161.53
2022-10-17T19:21:42.764Z,97163.47
2022-10-17T19:24:15.031Z,97165.53
2022-10-17T19:26:43.162Z,97160.59
2022-10-17T19:29:13.561Z,97158.63
2022-10-17T19:31:43.371Z,97163.78
2022-10-17T19:34:12.013Z,97164.91
2022-10-17T19:36:41.119Z,97166.94
2022-10-17T19:39:11.839Z,97171.41
2022-10-17T19:41:41.433Z,97166.06
2022-10-17T19:44:09.177Z,97169.88
2022-10-17T19:46:37.092Z,97172.75
2022-10-17T19:49:07.245Z,97169.41
2022-10-17T19:51:35.256Z,97171.81
2022-10-17T19:54:03.346Z,97169.25
2022-10-17T19:56:32.920Z,97174.38
2022-10-17T19:59:00.698Z,97173.28
2022-10-17T20:01:31.243Z,97179.81
2022-10-17T20:03:58.971Z,97180.47
2022-10-17T20:06:28.279Z,97182.88
2022-10-17T20:08:55.958Z,97185.75
2022-10-17T20:11:25.271Z,97186.25
2022-10-17T20:13:53.546Z,97182.06
2022-10-17T20:16:23.111Z,97185.25
2022-10-17T20:18:51.647Z,97189.09
2022-10-17T20:21:21.916Z,97187.97
2022-10-17T20:23:51.541Z,97186.88
2022-10-17T20:26:37.439Z,97191.00
2022-10-17T20:29:10.681Z,97192.06
2022-10-17T20:31:38.955Z,97200.38
2022-10-17T20:34:06.639Z,97200.78
2022-10-17T20:36:36.940Z,97200.47
2022-10-17T20:39:07.422Z,97196.63
2022-10-17T20:41:35.598Z,97201.94
2022-10-17T20:44:03.774Z,97204.66
2022-10-17T20:46:44.888Z,97213.31
2022-10-17T20:49:22.238Z,97207.88
2022-10-17T20:51:50.343Z,97209.47
2022-10-17T20:54:19.530Z,97207.50
2022-10-17T20:56:47.229Z,97218.38
2022-10-17T20:59:18.067Z,97217.78
2022-10-17T21:01:46.833Z,97217.78
2022-10-17T21:04:44.192Z,97219.03
2022-10-17T21:07:03.252Z,97219.66
2022-10-17T21:09:32.425Z,97215.81
2022-10-17T21:14:36.255Z,97227.31
2022-10-17T21:17:05.494Z,97224.59
2022-10-17T21:19:33.476Z,97222.44
2022-10-17T21:22:01.470Z,97217.13
2022-10-17T21:24:29.186Z,97223.50
2022-10-17T21:26:58.808Z,97212.16
2022-10-17T21:29:26.585Z,97217.94
2022-10-17T21:31:54.329Z,97217.06
2022-10-17T21:34:24.975Z,97226.81
2022-10-17T21:36:53.367Z,97223.31
2022-10-17T21:39:21.709Z,97227.94
2022-10-17T21:41:49.532Z,97225.84
2022-10-17T21:44:20.326Z,97232.38
2022-10-17T21:46:48.556Z,97225.16
2022-10-17T21:49:22.767Z,97235.97
2022-10-17T21:51:51.378Z,97230.72
2022-10-17T21:54:20.619Z,97225.28
2022-10-17T21:56:48.360Z,97223.47
2022-10-17T21:59:16.323Z,97231.34
2022-10-17T22:01:46.635Z,97231.44
2022-10-17T22:04:16.321Z,97224.59
2022-10-17T22:06:45.966Z,97225.16
2022-10-17T22:09:16.130Z,97220.38
2022-10-17T22:11:46.352Z,97217.44
2022-10-17T22:14:16.848Z,97214.94
2022-10-17T22:16:46.719Z,97211.00
2022-10-17T22:19:17.336Z,97215.94
2022-10-17T22:21:45.051Z,97216.44
2022-10-17T22:24:15.113Z,97208.50
2022-10-17T22:26:44.372Z,97214.25
2022-10-17T22:29:13.320Z,97212.63
2022-10-17T22:31:41.479Z,97209.09
2022-10-17T22:34:12.847Z,97214.00
2022-10-17T22:36:40.630Z,97207.72
2022-10-17T22:39:08.480Z,97208.94
2022-10-17T22:41:36.446Z,97207.22
2022-10-17T22:44:04.525Z,97203.22
2022-10-17T22:46:32.265Z,97200.50
2022-10-17T22:49:00.012Z,97204.50
2022-10-17T22:51:29.127Z,97198.47
2022-10-17T22:53:56.920Z,97200.19
2022-10-17T22:56:24.810Z,97204.13
2022-10-17T22:58:52.754Z,97199.63
2022-10-17T23:01:23.626Z,97198.50
2022-10-17T23:03:52.655Z,97192.47
2022-10-17T23:06:20.926Z,97192.09
2022-10-17T23:08:50.533Z,97187.88
2022-10-17T23:11:18.308Z,97185.66
2022-10-17T23:13:46.008Z,97186.28
2022-10-17T23:16:13.763Z,97180.06
2022-10-17T23:18:41.508Z,97177.81
2022-10-17T23:21:09.524Z,97176.72
2022-10-17T23:23:37.823Z,97175.59
2022-10-17T23:26:09.687Z,97165.97
2022-10-17T23:28:37.435Z,97167.59
2022-10-17T23:31:13.307Z,97173.94
2022-10-17T23:33:41.594Z,97161.22
2022-10-17T23:36:10.765Z,97172.16
2022-10-17T23:38:38.572Z,97163.50
2022-10-17T23:41:08.065Z,97167.03
2022-10-17T23:43:36.019Z,97160.91
2022-10-17T23:46:04.829Z,97157.09
2022-10-17T23:48:33.070Z,97158.78
2022-10-17T23:51:00.772Z,97158.78
2022-10-17T23:53:28.523Z,97158.00
2022-10-17T23:55:56.227Z,97154.47
2022-10-17T23:58:25.328Z,97165.22
